Time;durP1;ratioP1;P1;durP2;ratioP2;P2;SDS_P1;SDS_P2;PMS_P1;PMS_P2;Temp;Humidity;BMP_temperature;BMP_pressure;BME280_temperature;BME280_humidity;BME280_pressure;Samples;Min_cycle;Max_cycle;Signal;HPM_P1;HPM_P2
2021/09/05 00:00:20;;;;;;;26.47;17.10;;;14.80;99.90;;;;;;5030454;28;20195;-72
2021/09/05 00:02:46;;;;;;;26.43;16.50;;;14.70;99.90;;;;;;5032732;28;20177;-72
2021/09/05 00:05:11;;;;;;;29.87;17.70;;;14.70;99.90;;;;;;5033483;28;20160;-72
2021/09/05 00:07:37;;;;;;;27.97;16.63;;;14.70;99.90;;;;;;5033489;28;20168;-72
2021/09/05 00:10:03;;;;;;;25.13;16.10;;;14.70;99.90;;;;;;5033328;28;20534;-72
2021/09/05 00:12:28;;;;;;;25.67;16.73;;;14.70;99.90;;;;;;5032908;28;20223;-72
2021/09/05 00:14:54;;;;;;;26.13;15.57;;;14.70;99.90;;;;;;5033476;28;20416;-72
2021/09/05 00:17:19;;;;;;;22.47;15.53;;;14.60;99.90;;;;;;5033127;28;20161;-72
2021/09/05 00:19:45;;;;;;;24.03;13.73;;;14.60;99.90;;;;;;5033280;28;20640;-72
2021/09/05 00:22:10;;;;;;;18.77;12.30;;;14.60;99.90;;;;;;5033404;28;20165;-72
2021/09/05 00:24:36;;;;;;;26.40;16.47;;;14.60;99.90;;;;;;5037366;28;20165;-72
2021/09/05 00:27:01;;;;;;;26.20;15.87;;;14.60;99.90;;;;;;5044051;28;20593;-72
2021/09/05 00:29:27;;;;;;;24.60;15.50;;;14.60;99.90;;;;;;5033073;28;20608;-72
2021/09/05 00:31:53;;;;;;;26.50;15.13;;;14.60;99.90;;;;;;5031893;28;20243;-72
2021/09/05 00:34:19;;;;;;;24.43;16.03;;;14.50;99.90;;;;;;5033077;28;20222;-72
2021/09/05 00:36:45;;;;;;;26.50;17.20;;;14.50;99.90;;;;;;5032953;28;20889;-72
2021/09/05 00:39:10;;;;;;;27.00;17.07;;;14.50;99.90;;;;;;5033130;28;20524;-72
2021/09/05 00:41:36;;;;;;;24.00;14.50;;;14.50;99.90;;;;;;5033088;28;20411;-72
2021/09/05 00:44:04;;;;;;;30.90;16.53;;;14.40;99.90;;;;;;5029019;28;20708;-72
2021/09/05 00:46:32;;;;;;;25.67;14.00;;;14.50;99.90;;;;;;5028206;28;20477;-72
2021/09/05 00:48:57;;;;;;;19.60;14.53;;;14.50;99.90;;;;;;5032448;28;20435;-72
2021/09/05 00:51:28;;;;;;;27.20;15.50;;;14.50;99.90;;;;;;5032408;28;20568;-72
2021/09/05 00:53:54;;;;;;;24.90;15.77;;;14.40;99.90;;;;;;5032701;28;20157;-72
2021/09/05 00:56:20;;;;;;;23.00;14.73;;;14.40;99.90;;;;;;5032703;28;20885;-72
2021/09/05 00:58:46;;;;;;;25.50;15.90;;;14.40;99.90;;;;;;5032518;28;20192;-72
2021/09/05 01:01:13;;;;;;;25.00;16.07;;;14.40;99.90;;;;;;5031113;28;20184;-72
2021/09/05 01:03:39;;;;;;;25.73;16.30;;;14.40;99.90;;;;;;5032385;28;20446;-72
2021/09/05 01:06:05;;;;;;;24.20;16.20;;;14.40;99.90;;;;;;5032025;28;20423;-72
2021/09/05 01:08:31;;;;;;;28.33;15.97;;;14.40;99.90;;;;;;5032881;28;20933;-72
2021/09/05 01:10:57;;;;;;;46.40;24.40;;;14.40;99.90;;;;;;5032561;28;20470;-72
2021/09/05 01:13:23;;;;;;;33.47;19.03;;;14.30;99.90;;;;;;5032649;28;20161;-72
2021/09/05 01:15:48;;;;;;;36.07;19.20;;;14.30;99.90;;;;;;5032242;28;20531;-72
2021/09/05 01:18:14;;;;;;;29.10;15.73;;;14.30;99.90;;;;;;5032432;28;20235;-72
2021/09/05 01:20:40;;;;;;;29.13;17.80;;;14.20;99.90;;;;;;5032179;28;20192;-72
2021/09/05 01:23:05;;;;;;;26.40;16.40;;;14.20;99.90;;;;;;5032385;28;20161;-72
2021/09/05 01:25:31;;;;;;;24.17;15.50;;;14.20;99.90;;;;;;5032412;28;20169;-72
2021/09/05 01:27:56;;;;;;;25.07;15.70;;;14.20;99.90;;;;;;5032475;28;20165;-72
2021/09/05 01:30:22;;;;;;;29.60;16.20;;;14.20;99.90;;;;;;5030962;28;20188;-72
2021/09/05 01:32:47;;;;;;;30.33;18.97;;;14.10;99.90;;;;;;5032047;28;20199;-72
2021/09/05 01:35:13;;;;;;;26.70;15.40;;;14.10;99.90;;;;;;5031983;28;20184;-72
2021/09/05 01:37:38;;;;;;;24.10;16.13;;;14.10;99.90;;;;;;5032013;28;20173;-72
2021/09/05 01:40:04;;;;;;;26.27;16.50;;;14.10;99.90;;;;;;5032400;28;20165;-72
2021/09/05 01:42:30;;;;;;;25.33;16.80;;;14.10;99.90;;;;;;5032157;28;20164;-72
2021/09/05 01:44:56;;;;;;;22.90;15.57;;;14.10;99.90;;;;;;5032265;28;20415;-72
2021/09/05 01:47:21;;;;;;;24.97;15.83;;;14.10;99.90;;;;;;5031981;28;20234;-72
2021/09/05 01:49:47;;;;;;;31.70;16.30;;;14.10;99.90;;;;;;5032188;28;20650;-72
2021/09/05 01:52:12;;;;;;;25.87;15.47;;;14.10;99.90;;;;;;5029584;28;20200;-72
2021/09/05 01:54:38;;;;;;;25.50;15.63;;;14.10;99.90;;;;;;5032039;28;20538;-72
2021/09/05 01:57:04;;;;;;;28.13;15.40;;;14.10;99.90;;;;;;5032144;28;20243;-72
2021/09/05 01:59:30;;;;;;;22.47;14.23;;;14.10;99.90;;;;;;5032078;28;20189;-72
2021/09/05 02:01:56;;;;;;;26.37;16.50;;;14.10;99.90;;;;;;5048984;28;20799;-72
2021/09/05 02:04:21;;;;;;;28.60;16.63;;;14.00;99.90;;;;;;5051940;28;20594;-72
2021/09/05 02:06:47;;;;;;;27.67;15.90;;;14.00;99.90;;;;;;5051875;28;20195;-72
2021/09/05 02:09:12;;;;;;;23.07;14.93;;;14.00;99.90;;;;;;5041709;28;20708;-72
2021/09/05 02:11:38;;;;;;;26.30;16.67;;;14.00;99.90;;;;;;5031834;28;20212;-72
2021/09/05 02:14:04;;;;;;;27.07;16.23;;;14.00;99.90;;;;;;5030741;28;20272;-72
2021/09/05 02:16:29;;;;;;;26.70;16.13;;;14.00;99.90;;;;;;5011996;28;20626;-72
2021/09/05 02:18:55;;;;;;;23.83;15.87;;;13.90;99.90;;;;;;5012961;28;20393;-72
2021/09/05 02:21:20;;;;;;;23.67;14.23;;;13.90;99.90;;;;;;5015912;28;20723;-72
2021/09/05 02:23:46;;;;;;;22.27;14.70;;;13.90;99.90;;;;;;5015947;28;20240;-72
2021/09/05 02:26:11;;;;;;;28.57;17.47;;;13.90;99.90;;;;;;5025572;28;20197;-72
2021/09/05 02:28:37;;;;;;;24.27;14.33;;;13.90;99.90;;;;;;5035547;28;20189;-72
2021/09/05 02:31:03;;;;;;;22.43;14.27;;;13.90;99.90;;;;;;5032974;28;20192;-72
2021/09/05 02:33:28;;;;;;;29.13;17.30;;;13.90;99.90;;;;;;5035198;28;20611;-72
2021/09/05 02:35:54;;;;;;;32.90;17.40;;;13.90;99.90;;;;;;5035279;28;20780;-72
2021/09/05 02:38:20;;;;;;;28.23;16.07;;;13.80;99.90;;;;;;5032310;28;20185;-72
2021/09/05 02:40:45;;;;;;;30.10;15.70;;;13.80;99.90;;;;;;5015272;28;20205;-72
2021/09/05 02:43:11;;;;;;;25.53;15.00;;;13.80;99.90;;;;;;5024941;28;20226;-72
2021/09/05 02:45:37;;;;;;;27.80;17.93;;;13.80;99.90;;;;;;5029856;28;20180;-72
2021/09/05 02:48:03;;;;;;;26.27;14.70;;;13.80;99.90;;;;;;5015065;28;20615;-72
2021/09/05 02:50:29;;;;;;;31.43;15.90;;;13.70;99.90;;;;;;5015100;28;20210;-72
2021/09/05 02:52:54;;;;;;;37.17;18.20;;;13.70;99.90;;;;;;5015379;28;20479;-72
2021/09/05 02:55:20;;;;;;;35.23;18.07;;;13.70;99.90;;;;;;5015826;28;20157;-70
2021/09/05 02:57:45;;;;;;;26.53;15.23;;;13.70;99.90;;;;;;5014989;28;20193;-70
2021/09/05 03:00:11;;;;;;;29.07;15.63;;;13.70;99.90;;;;;;5019024;28;20580;-72
2021/09/05 03:02:37;;;;;;;23.90;15.70;;;13.60;99.90;;;;;;5030896;28;20184;-72
2021/09/05 03:05:03;;;;;;;22.20;14.17;;;13.60;99.90;;;;;;5034747;28;20502;-73
2021/09/05 03:07:29;;;;;;;24.70;13.83;;;13.60;99.90;;;;;;5034685;28;20629;-73
2021/09/05 03:09:54;;;;;;;25.97;16.73;;;13.60;99.90;;;;;;5034635;28;20195;-73
2021/09/05 03:12:23;;;;;;;20.50;13.30;;;13.60;99.90;;;;;;5034412;28;20657;-73
2021/09/05 03:14:49;;;;;;;26.50;15.97;;;13.50;99.90;;;;;;5034301;28;20514;-73
2021/09/05 03:17:15;;;;;;;21.90;14.23;;;13.50;99.90;;;;;;5034180;28;20419;-73
2021/09/05 03:19:40;;;;;;;22.93;14.47;;;13.50;99.90;;;;;;5034242;28;20911;-73
2021/09/05 03:22:06;;;;;;;21.83;13.43;;;13.50;99.90;;;;;;5034309;28;20167;-73
2021/09/05 03:24:31;;;;;;;16.53;11.87;;;13.50;99.90;;;;;;5034254;28;20212;-73
2021/09/05 03:26:57;;;;;;;23.03;14.53;;;13.50;99.90;;;;;;5034170;28;20161;-73
2021/09/05 03:29:22;;;;;;;20.93;13.30;;;13.50;99.90;;;;;;5033595;28;20168;-73
2021/09/05 03:31:48;;;;;;;26.23;13.83;;;13.50;99.90;;;;;;5050897;28;20547;-73
2021/09/05 03:34:14;;;;;;;20.37;13.43;;;13.40;99.90;;;;;;5043615;28;20645;-73
2021/09/05 03:36:39;;;;;;;18.60;11.77;;;13.40;99.90;;;;;;5033453;28;20172;-73
2021/09/05 03:39:05;;;;;;;18.03;11.50;;;13.40;99.90;;;;;;5034176;28;20661;-73
2021/09/05 03:41:30;;;;;;;20.70;13.87;;;13.40;99.90;;;;;;5033940;28;20164;-73
2021/09/05 03:43:56;;;;;;;23.33;13.47;;;13.40;99.90;;;;;;5033865;28;20244;-73
2021/09/05 03:46:21;;;;;;;20.83;12.83;;;13.40;99.90;;;;;;5022557;28;20189;-73
2021/09/05 03:48:47;;;;;;;23.00;13.80;;;13.40;99.90;;;;;;5014077;28;20529;-73
2021/09/05 03:51:13;;;;;;;22.90;13.37;;;13.40;99.90;;;;;;5023965;28;20176;-73
2021/09/05 03:53:38;;;;;;;20.03;13.03;;;13.40;99.90;;;;;;5033868;28;20180;-73
2021/09/05 03:56:04;;;;;;;19.90;12.60;;;13.40;99.90;;;;;;5033380;28;20256;-73
2021/09/05 03:58:30;;;;;;;20.33;12.90;;;13.40;99.90;;;;;;5032857;28;20203;-73
2021/09/05 04:00:55;;;;;;;21.80;11.93;;;13.30;99.90;;;;;;5033631;28;20944;-73
2021/09/05 04:03:23;;;;;;;18.73;12.23;;;13.30;99.90;;;;;;5033595;28;20164;-73
2021/09/05 04:05:49;;;;;;;16.17;10.87;;;13.30;99.90;;;;;;5034354;28;20177;-73
2021/09/05 04:08:15;;;;;;;15.63;11.50;;;13.30;99.90;;;;;;5033764;28;20412;-73
2021/09/05 04:10:41;;;;;;;21.53;12.23;;;13.30;99.90;;;;;;5033158;28;20173;-73
2021/09/05 04:13:09;;;;;;;17.20;11.50;;;13.20;99.90;;;;;;5033071;28;20506;-73
2021/09/05 04:15:34;;;;;;;13.57;9.93;;;13.20;99.90;;;;;;5033031;28;20395;-73
2021/09/05 04:18:00;;;;;;;16.60;10.40;;;13.20;99.90;;;;;;5033267;28;20411;-73
2021/09/05 04:20:25;;;;;;;15.80;9.90;;;13.20;99.90;;;;;;5035570;28;20164;-73
2021/09/05 04:22:51;;;;;;;19.70;10.37;;;13.20;99.90;;;;;;5033318;28;20172;-73
2021/09/05 04:25:17;;;;;;;15.83;9.93;;;13.10;99.90;;;;;;5032751;28;20181;-73
2021/09/05 04:27:43;;;;;;;16.93;11.13;;;13.10;99.90;;;;;;5032771;28;20180;-73
2021/09/05 04:30:10;;;;;;;19.20;12.30;;;13.10;99.90;;;;;;5026887;28;20435;-73
2021/09/05 04:32:37;;;;;;;13.87;9.63;;;13.10;99.90;;;;;;5032859;28;20276;-73
2021/09/05 04:35:03;;;;;;;13.67;10.93;;;13.10;99.90;;;;;;5033106;28;20403;-73
2021/09/05 04:37:30;;;;;;;22.13;12.70;;;13.10;99.90;;;;;;5033168;28;20403;-73
2021/09/05 04:39:55;;;;;;;17.30;11.10;;;13.10;99.90;;;;;;5032948;28;20837;-73
2021/09/05 04:42:21;;;;;;;14.20;10.73;;;13.10;99.90;;;;;;5032112;28;20502;-73
2021/09/05 04:44:47;;;;;;;17.80;11.37;;;13.00;99.90;;;;;;5032685;28;20184;-73
2021/09/05 04:47:13;;;;;;;18.37;11.33;;;13.00;99.90;;;;;;5032808;28;20400;-73
2021/09/05 04:49:39;;;;;;;17.27;10.73;;;13.00;99.90;;;;;;5032842;28;20187;-73
2021/09/05 04:52:06;;;;;;;15.40;11.43;;;13.00;99.90;;;;;;5032773;28;20478;-73
2021/09/05 04:54:33;;;;;;;19.80;11.63;;;13.00;99.90;;;;;;5032551;28;20211;-73
2021/09/05 04:56:58;;;;;;;18.73;11.20;;;13.00;99.90;;;;;;5032580;28;20388;-73
2021/09/05 04:59:24;;;;;;;17.50;10.80;;;13.00;99.90;;;;;;5029117;28;20535;-73
2021/09/05 05:01:50;;;;;;;17.83;10.90;;;13.00;99.90;;;;;;5028916;28;20231;-72
2021/09/05 05:04:15;;;;;;;16.50;11.53;;;13.00;99.90;;;;;;5032679;28;20764;-72
2021/09/05 05:06:42;;;;;;;16.97;10.90;;;13.00;99.90;;;;;;5033201;28;20633;-73
2021/09/05 05:09:10;;;;;;;15.37;10.40;;;13.00;99.90;;;;;;5032592;28;20161;-73
2021/09/05 05:11:36;;;;;;;19.17;10.97;;;13.00;99.90;;;;;;5032646;28;20459;-73
2021/09/05 05:14:02;;;;;;;18.10;11.30;;;13.00;99.90;;;;;;5032783;28;20404;-73
2021/09/05 05:16:28;;;;;;;17.13;10.97;;;13.00;99.90;;;;;;5024233;28;20455;-73
2021/09/05 05:18:53;;;;;;;18.60;12.60;;;13.00;99.90;;;;;;5030767;28;20177;-73
2021/09/05 05:21:19;;;;;;;17.57;10.63;;;13.00;99.90;;;;;;5033192;28;20253;-73
2021/09/05 05:23:44;;;;;;;18.90;11.40;;;13.00;99.90;;;;;;5032523;28;20176;-73
2021/09/05 05:26:10;;;;;;;15.90;10.77;;;13.00;99.90;;;;;;5032439;28;20624;-72
2021/09/05 05:28:36;;;;;;;17.90;9.70;;;13.10;99.90;;;;;;5032121;28;20552;-72
2021/09/05 05:31:01;;;;;;;20.27;11.33;;;13.10;99.90;;;;;;5025441;28;20181;-72
2021/09/05 05:33:27;;;;;;;17.83;11.80;;;13.10;99.90;;;;;;5032359;28;20645;-72
2021/09/05 05:35:52;;;;;;;16.67;10.97;;;13.10;99.90;;;;;;5032405;28;20173;-72
2021/09/05 05:38:18;;;;;;;20.53;10.57;;;13.10;99.90;;;;;;5032662;28;20165;-72
2021/09/05 05:40:44;;;;;;;19.73;11.90;;;13.10;99.90;;;;;;5032176;28;20244;-72
2021/09/05 05:43:09;;;;;;;21.67;12.37;;;13.20;99.90;;;;;;5032564;28;20176;-73
2021/09/05 05:45:35;;;;;;;20.33;11.27;;;13.20;99.90;;;;;;5032288;28;20161;-73
2021/09/05 05:48:00;;;;;;;19.37;12.47;;;13.20;99.90;;;;;;5031197;28;20161;-73
2021/09/05 05:50:26;;;;;;;18.60;11.37;;;13.30;99.90;;;;;;5024973;28;20189;-73
2021/09/05 05:52:52;;;;;;;18.27;11.77;;;13.30;99.90;;;;;;5031788;28;20295;-73
2021/09/05 05:55:19;;;;;;;17.70;11.97;;;13.30;99.90;;;;;;5045366;28;20180;-73
2021/09/05 05:57:45;;;;;;;17.70;11.77;;;13.30;99.90;;;;;;5056032;28;20202;-73
2021/09/05 06:00:11;;;;;;;15.33;11.33;;;13.30;99.90;;;;;;5056025;28;20422;-73
2021/09/05 06:02:36;;;;;;;17.73;10.30;;;13.40;99.90;;;;;;5049078;28;20189;-73
2021/09/05 06:05:02;;;;;;;16.50;11.20;;;13.40;99.90;;;;;;5036072;28;20388;-73
2021/09/05 06:07:28;;;;;;;16.00;11.77;;;13.50;99.90;;;;;;5035571;28;20185;-73
2021/09/05 06:09:54;;;;;;;13.87;10.23;;;13.50;99.90;;;;;;5035677;28;20549;-73
2021/09/05 06:12:19;;;;;;;18.10;10.90;;;13.50;99.90;;;;;;5035580;28;20201;-73
2021/09/05 06:14:45;;;;;;;19.70;10.77;;;13.50;99.90;;;;;;5035911;28;20169;-73
2021/09/05 06:17:11;;;;;;;17.20;11.20;;;13.60;99.90;;;;;;5035638;28;20164;-73
2021/09/05 06:19:37;;;;;;;16.23;11.57;;;13.70;99.90;;;;;;5036086;28;20158;-73
2021/09/05 06:22:03;;;;;;;16.20;10.70;;;13.70;99.90;;;;;;5035541;28;20404;-73
2021/09/05 06:24:28;;;;;;;14.90;9.73;;;13.80;99.90;;;;;;5033532;28;20189;-73
2021/09/05 06:26:54;;;;;;;16.40;10.57;;;13.80;99.90;;;;;;5035290;28;20235;-73
2021/09/05 06:29:19;;;;;;;15.97;11.50;;;13.80;99.90;;;;;;5035165;28;20169;-73
2021/09/05 06:31:45;;;;;;;18.07;10.93;;;13.90;99.90;;;;;;5033473;28;20215;-73
2021/09/05 06:34:11;;;;;;;14.43;9.97;;;14.00;99.90;;;;;;5016882;28;20174;-73
2021/09/05 06:36:36;;;;;;;20.73;12.57;;;14.00;99.90;;;;;;5015622;28;20619;-73
2021/09/05 06:39:02;;;;;;;15.30;10.63;;;14.10;99.90;;;;;;5015547;28;20157;-73
2021/09/05 06:41:29;;;;;;;15.00;10.60;;;14.10;99.90;;;;;;5027574;28;20263;-73
2021/09/05 06:43:56;;;;;;;15.63;10.37;;;14.20;99.90;;;;;;5035031;28;20461;-73
2021/09/05 06:46:21;;;;;;;15.97;10.00;;;14.20;99.90;;;;;;5035377;28;20391;-73
2021/09/05 06:48:47;;;;;;;15.07;10.53;;;14.30;99.90;;;;;;5028091;28;20428;-73
2021/09/05 06:51:13;;;;;;;15.50;9.80;;;14.40;99.90;;;;;;5015206;28;20525;-73
2021/09/05 06:53:39;;;;;;;16.70;10.93;;;14.40;99.90;;;;;;5015212;28;20196;-73
2021/09/05 06:56:05;;;;;;;16.07;10.53;;;14.50;99.90;;;;;;5034827;28;20900;-73
2021/09/05 06:58:31;;;;;;;14.03;10.53;;;14.50;99.90;;;;;;5034705;28;20442;-73
2021/09/05 07:00:56;;;;;;;15.87;10.40;;;14.60;99.90;;;;;;5041930;28;20176;-73
2021/09/05 07:03:22;;;;;;;13.83;10.13;;;14.60;99.90;;;;;;5040682;28;20270;-73
2021/09/05 07:05:47;;;;;;;17.00;9.00;;;14.70;99.90;;;;;;5034414;28;20539;-73
2021/09/05 07:08:13;;;;;;;15.60;9.80;;;14.80;99.90;;;;;;5034875;28;20189;-73
2021/09/05 07:10:39;;;;;;;17.40;10.50;;;14.90;99.90;;;;;;5034457;28;20161;-73
2021/09/05 07:13:05;;;;;;;14.20;10.47;;;15.00;99.90;;;;;;5034601;28;20812;-73
2021/09/05 07:15:31;;;;;;;14.30;10.37;;;15.10;99.90;;;;;;5034534;28;20412;-73
2021/09/05 07:17:57;;;;;;;13.07;9.63;;;15.20;99.90;;;;;;5034602;28;20646;-73
2021/09/05 07:20:22;;;;;;;18.17;11.03;;;15.20;99.90;;;;;;5034648;28;20522;-73
2021/09/05 07:22:48;;;;;;;14.67;10.20;;;15.30;99.90;;;;;;5034051;28;20181;-73
2021/09/05 07:25:14;;;;;;;15.87;9.93;;;15.40;99.90;;;;;;5040041;28;20641;-73
2021/09/05 07:27:39;;;;;;;15.80;11.50;;;15.50;99.90;;;;;;5033738;28;20196;-73
2021/09/05 07:30:07;;;;;;;12.63;9.40;;;15.60;99.90;;;;;;5034525;28;20169;-73
2021/09/05 07:32:32;;;;;;;17.17;11.00;;;15.70;99.90;;;;;;5034172;28;20265;-73
2021/09/05 07:34:58;;;;;;;15.47;10.23;;;15.80;99.90;;;;;;5034233;28;20909;-73
2021/09/05 07:37:23;;;;;;;14.50;9.13;;;15.80;99.90;;;;;;5034149;28;20609;-73
2021/09/05 07:39:49;;;;;;;14.53;10.13;;;15.90;99.90;;;;;;5034148;28;20239;-73
2021/09/05 07:42:15;;;;;;;13.07;9.53;;;16.00;99.90;;;;;;5034003;28;20171;-73
2021/09/05 07:44:40;;;;;;;13.00;9.37;;;16.10;99.90;;;;;;5034098;28;20279;-73
2021/09/05 07:47:06;;;;;;;12.17;9.30;;;16.20;99.90;;;;;;5034402;28;20199;-73
2021/09/05 07:49:32;;;;;;;12.60;8.53;;;16.30;99.90;;;;;;5033506;28;20549;-73
2021/09/05 07:51:58;;;;;;;13.30;9.40;;;16.40;99.90;;;;;;5033393;28;20205;-73
2021/09/05 07:54:23;;;;;;;18.77;10.03;;;16.40;99.90;;;;;;5020379;28;20450;-73
2021/09/05 07:56:49;;;;;;;15.33;9.37;;;16.50;99.90;;;;;;5034119;28;20256;-73
2021/09/05 07:59:14;;;;;;;14.63;10.33;;;16.60;99.90;;;;;;5033854;28;20277;-73
2021/09/05 08:01:40;;;;;;;13.00;9.67;;;16.80;99.90;;;;;;5034174;28;20532;-73
2021/09/05 08:04:06;;;;;;;15.70;10.37;;;16.90;99.90;;;;;;5033500;28;20165;-73
2021/09/05 08:06:31;;;;;;;18.60;10.27;;;17.00;99.90;;;;;;5033715;28;20543;-73
2021/09/05 08:08:58;;;;;;;13.50;9.53;;;17.10;99.90;;;;;;5033405;28;20543;-73
2021/09/05 08:11:24;;;;;;;14.73;10.47;;;17.10;99.90;;;;;;5033462;28;20191;-73
2021/09/05 08:13:49;;;;;;;15.20;10.43;;;17.20;99.90;;;;;;5033450;28;20411;-73
2021/09/05 08:16:15;;;;;;;16.33;8.90;;;17.30;99.90;;;;;;5033257;28;20849;-73
2021/09/05 08:18:41;;;;;;;14.07;10.33;;;17.40;99.90;;;;;;5033617;28;20545;-73
2021/09/05 08:21:08;;;;;;;13.83;9.50;;;17.50;99.90;;;;;;5029417;28;20161;-73
2021/09/05 08:23:34;;;;;;;14.70;10.70;;;17.60;99.90;;;;;;5017717;28;20226;-73
2021/09/05 08:26:00;;;;;;;15.50;10.37;;;17.70;99.90;;;;;;5031968;28;20430;-73
2021/09/05 08:28:26;;;;;;;13.37;9.97;;;17.80;99.90;;;;;;5033345;28;20400;-73
2021/09/05 08:30:52;;;;;;;16.20;10.93;;;17.90;99.90;;;;;;5032675;28;20944;-73
2021/09/05 08:33:18;;;;;;;12.50;8.70;;;17.90;99.90;;;;;;5033315;28;20188;-73
2021/09/05 08:35:45;;;;;;;14.33;9.47;;;18.00;99.90;;;;;;5033231;28;20187;-73
2021/09/05 08:38:11;;;;;;;12.13;9.40;;;18.10;99.90;;;;;;5033100;28;20404;-73
2021/09/05 08:40:41;;;;;;;14.20;10.27;;;18.20;99.90;;;;;;5032808;28;20545;-73
2021/09/05 08:43:08;;;;;;;11.87;8.83;;;18.20;99.90;;;;;;5033251;28;20420;-73
2021/09/05 08:45:35;;;;;;;14.37;9.57;;;18.30;99.90;;;;;;5033524;28;20406;-73
2021/09/05 08:48:02;;;;;;;13.77;9.57;;;18.40;99.90;;;;;;5033133;28;20830;-73
2021/09/05 08:50:29;;;;;;;12.20;9.43;;;18.40;99.90;;;;;;5033022;28;20462;-73
2021/09/05 08:52:55;;;;;;;14.60;10.60;;;18.50;99.90;;;;;;5032780;28;20439;-73
2021/09/05 08:55:20;;;;;;;13.70;9.70;;;18.60;99.90;;;;;;5032550;28;20422;-73
2021/09/05 08:57:46;;;;;;;12.20;8.97;;;18.70;99.90;;;;;;5033110;28;20316;-73
2021/09/05 09:00:12;;;;;;;12.27;8.97;;;18.70;99.90;;;;;;5033121;28;20270;-74
2021/09/05 09:02:55;;;;;;;12.77;9.10;;;18.80;99.90;;;;;;5052692;28;20156;-73
2021/09/05 09:08:14;;;;;;;13.07;9.40;;;18.80;99.90;;;;;;5069952;28;20535;-73
2021/09/05 09:10:53;;;;;;;12.10;9.43;;;19.10;99.90;;;;;;5070129;28;20747;-73
2021/09/05 09:13:29;;;;;;;12.37;10.27;;;19.60;99.90;;;;;;5067811;28;20418;-73
2021/09/05 09:15:57;;;;;;;19.60;11.37;;;20.30;99.90;;;;;;5050508;28;20414;-73
2021/09/05 09:18:24;;;;;;;11.20;9.40;;;20.70;99.90;;;;;;5049796;28;20895;-73
2021/09/05 09:20:50;;;;;;;10.93;9.60;;;21.10;99.90;;;;;;5049603;28;20375;-73
2021/09/05 09:23:21;;;;;;;12.37;7.57;;;21.40;99.90;;;;;;5049580;28;20383;-73
2021/09/05 09:26:09;;;;;;;11.43;6.77;;;21.50;99.90;;;;;;5067842;28;20241;-73
2021/09/05 09:31:17;;;;;;;11.13;7.30;;;21.40;99.90;;;;;;5079008;27;20539;-73
2021/09/05 09:33:46;;;;;;;10.57;7.87;;;21.40;99.90;;;;;;5069326;28;20409;-73
2021/09/05 09:36:15;;;;;;;11.10;6.53;;;21.40;99.90;;;;;;5069925;28;20425;-73
2021/09/05 09:39:03;;;;;;;10.40;6.63;;;21.30;99.90;;;;;;5069996;28;20474;-73
2021/09/05 09:41:32;;;;;;;9.80;6.40;;;21.30;99.90;;;;;;5097117;28;20794;-73
2021/09/05 09:44:01;;;;;;;13.43;7.53;;;21.30;99.90;;;;;;5070212;28;20880;-73
2021/09/05 09:46:30;;;;;;;11.23;7.53;;;21.30;99.90;;;;;;5069717;28;20394;-73
2021/09/05 09:48:58;;;;;;;13.43;8.00;;;21.30;99.90;;;;;;5067963;28;20410;-73
2021/09/05 09:51:25;;;;;;;9.50;7.83;;;21.40;99.90;;;;;;5069548;28;20875;-73
2021/09/05 09:53:51;;;;;;;11.50;8.93;;;21.40;99.90;;;;;;5081899;28;20444;-73
2021/09/05 09:56:20;;;;;;;9.10;7.10;;;21.50;99.90;;;;;;5069559;28;20413;-73
2021/09/05 09:58:47;;;;;;;10.27;7.07;;;21.50;99.90;;;;;;5070041;28;20675;-73
2021/09/05 10:01:16;;;;;;;11.67;7.13;;;21.60;99.90;;;;;;5056932;28;20426;-73
2021/09/05 10:03:43;;;;;;;8.23;6.53;;;21.60;99.90;;;;;;5049287;28;21026;-73
2021/09/05 10:06:11;;;;;;;8.73;7.57;;;21.80;99.90;;;;;;5065587;28;20499;-73
2021/09/05 10:08:40;;;;;;;9.63;6.80;;;21.90;99.90;;;;;;5070155;28;20429;-73
2021/09/05 10:11:09;;;;;;;8.97;8.07;;;22.00;99.90;;;;;;5069270;28;20457;-73
2021/09/05 10:13:37;;;;;;;9.07;7.20;;;22.00;99.90;;;;;;5069507;28;20394;-73
2021/09/05 10:16:03;;;;;;;11.50;8.73;;;22.00;99.90;;;;;;5069027;28;20398;-73
2021/09/05 10:18:32;;;;;;;9.30;7.77;;;22.00;99.90;;;;;;5068982;28;20448;-73
2021/09/05 10:20:59;;;;;;;10.73;7.30;;;22.00;99.90;;;;;;5068637;28;20489;-73
2021/09/05 10:23:31;;;;;;;9.20;7.27;;;22.00;99.90;;;;;;5050130;28;20403;-73
2021/09/05 10:26:05;;;;;;;9.70;7.30;;;21.90;99.90;;;;;;5049545;28;20762;-73
2021/09/05 10:28:35;;;;;;;8.83;7.30;;;21.80;99.90;;;;;;5065750;28;20417;-73
2021/09/05 10:31:01;;;;;;;9.87;8.10;;;21.70;99.90;;;;;;5067058;28;20457;-73
2021/09/05 10:33:43;;;;;;;12.40;8.97;;;21.70;99.90;;;;;;5068890;28;20932;-73
2021/09/05 10:36:12;;;;;;;10.50;7.90;;;21.60;99.90;;;;;;5068769;28;20387;-73
2021/09/05 10:38:39;;;;;;;10.77;7.57;;;21.50;99.90;;;;;;5068666;28;20424;-73
2021/09/05 10:44:06;;;;;;;11.17;8.33;;;21.50;99.90;;;;;;5069915;28;21072;-73
2021/09/05 10:46:39;;;;;;;9.50;7.20;;;21.40;99.90;;;;;;5069786;28;20391;-73
2021/09/05 10:49:05;;;;;;;9.60;7.77;;;21.40;99.90;;;;;;5070140;28;20459;-73
2021/09/05 10:51:36;;;;;;;11.00;8.23;;;21.30;99.90;;;;;;5069835;28;20383;-73
2021/09/05 10:56:41;;;;;;;11.63;8.50;;;21.30;99.90;;;;;;5117458;27;20502;-73
2021/09/05 10:59:09;;;;;;;9.60;8.30;;;21.30;99.90;;;;;;5110480;28;20428;-73
2021/09/05 11:22:46;;;;;;;11.20;8.30;;;21.40;99.90;;;;;;5084169;28;20949;-74
2021/09/05 11:28:09;;;;;;;11.60;8.90;;;21.50;99.90;;;;;;5130919;27;20529;-74
2021/09/05 11:30:38;;;;;;;13.33;9.87;;;21.60;99.90;;;;;;5117225;28;20428;-74
2021/09/05 11:33:07;;;;;;;10.87;8.30;;;21.60;99.90;;;;;;5123839;28;20813;-74
2021/09/05 11:35:38;;;;;;;10.47;8.60;;;21.70;99.90;;;;;;5130825;28;20390;-74
2021/09/05 11:38:05;;;;;;;12.37;9.60;;;21.60;99.90;;;;;;5130755;28;20610;-74
2021/09/05 11:40:30;;;;;;;13.80;9.80;;;21.70;99.90;;;;;;5130918;28;20849;-74
2021/09/05 11:42:56;;;;;;;10.10;8.60;;;21.60;99.90;;;;;;5130673;28;20432;-74
2021/09/05 11:45:25;;;;;;;11.20;8.03;;;21.60;99.90;;;;;;5130448;28;20162;-74
2021/09/05 11:47:59;;;;;;;14.57;9.13;;;21.60;99.90;;;;;;5128891;28;21048;-74
2021/09/05 11:50:25;;;;;;;11.50;8.87;;;21.60;99.90;;;;;;5130453;28;20397;-74
2021/09/05 11:52:51;;;;;;;12.17;8.70;;;21.60;99.90;;;;;;5124594;28;20427;-74
2021/09/05 11:55:17;;;;;;;9.77;6.93;;;21.70;99.90;;;;;;5110437;28;20289;-74
2021/09/05 11:57:56;;;;;;;11.20;9.30;;;21.70;99.90;;;;;;5109825;28;20157;-74
2021/09/05 12:03:04;;;;;;;11.80;9.40;;;21.70;99.90;;;;;;5109801;27;21046;-73
2021/09/05 12:05:30;;;;;;;14.20;9.83;;;21.60;99.90;;;;;;5076515;28;20826;-73
2021/09/05 12:07:56;;;;;;;10.03;8.67;;;21.60;99.90;;;;;;5090264;28;20775;-73
2021/09/05 12:10:24;;;;;;;15.10;9.43;;;21.70;99.90;;;;;;5089804;28;20491;-73
2021/09/05 12:20:54;;;;;;;11.90;9.27;;;21.60;99.90;;;;;;5063011;28;20823;-73
2021/09/05 12:26:15;;;;;;;14.33;9.50;;;21.50;99.90;;;;;;5050597;28;20986;-73
2021/09/05 12:28:41;;;;;;;11.10;8.77;;;21.50;99.90;;;;;;5067398;28;20498;-73
2021/09/05 12:31:07;;;;;;;15.80;10.90;;;21.60;99.90;;;;;;5058015;28;20990;-73
2021/09/05 12:33:35;;;;;;;10.57;9.37;;;21.60;99.90;;;;;;5050047;28;20506;-73
2021/09/05 12:36:20;;;;;;;13.50;9.90;;;21.60;99.90;;;;;;5049813;28;20200;-73
2021/09/05 12:38:56;;;;;;;11.60;8.40;;;21.60;99.90;;;;;;5049441;28;20409;-73
2021/09/05 12:41:24;;;;;;;15.03;10.27;;;21.70;99.90;;;;;;5049772;28;20395;-73
2021/09/05 12:43:57;;;;;;;13.80;9.90;;;21.60;99.90;;;;;;5049617;28;20478;-74
2021/09/05 12:46:39;;;;;;;12.90;8.93;;;21.60;99.90;;;;;;5049472;28;20470;-74
2021/09/05 12:51:50;;;;;;;12.80;8.90;;;21.60;99.90;;;;;;5131434;27;21052;-73
2021/09/05 12:54:16;;;;;;;13.33;9.40;;;21.60;99.90;;;;;;5130335;28;20866;-73
2021/09/05 12:56:42;;;;;;;11.67;9.10;;;21.60;99.90;;;;;;5130182;28;20460;-74
2021/09/05 12:59:07;;;;;;;12.80;9.47;;;21.70;99.90;;;;;;5130777;28;20419;-74
2021/09/05 13:01:33;;;;;;;10.33;8.87;;;21.60;99.90;;;;;;5116078;28;20177;-74
2021/09/05 13:04:01;;;;;;;15.97;9.83;;;21.70;99.90;;;;;;5110346;28;20563;-74
2021/09/05 13:06:27;;;;;;;11.07;8.90;;;21.70;99.90;;;;;;5110517;28;20162;-74
2021/09/05 13:08:54;;;;;;;9.90;7.93;;;21.60;99.90;;;;;;5110318;28;20425;-74
2021/09/05 13:11:25;;;;;;;12.23;9.43;;;21.60;99.90;;;;;;5112091;28;20998;-74
2021/09/05 13:13:52;;;;;;;11.73;8.83;;;21.60;99.90;;;;;;5129726;28;20473;-74
2021/09/05 13:16:18;;;;;;;11.93;8.30;;;21.50;99.90;;;;;;5130535;28;20384;-74
2021/09/05 13:18:44;;;;;;;9.57;7.80;;;21.50;99.90;;;;;;5130416;27;20392;-74